Time;durP1;ratioP1;P1;durP2;ratioP2;P2;SDS_P1;SDS_P2;PMS_P1;PMS_P2;Temp;Humidity;BMP_temperature;BMP_pressure;BME280_temperature;BME280_humidity;BME280_pressure;Samples;Min_cycle;Max_cycle;Signal;HPM_P1;HPM_P2
2021/09/09 00:01:31;;;;;;;67.60;61.97;;;;;;;19.49;100.00;100944.17;1971954;73;31027;-73
2021/09/09 00:06:55;;;;;;;65.50;59.80;;;;;;;19.52;100.00;100923.75;1971753;73;30951;-72
2021/09/09 00:12:20;;;;;;;64.07;58.67;;;;;;;19.25;100.00;100925.69;1971862;73;30999;-72
2021/09/09 00:17:44;;;;;;;69.73;63.80;;;;;;;19.31;100.00;100918.66;1971775;73;31097;-73
2021/09/09 00:23:09;;;;;;;67.10;61.50;;;;;;;19.55;100.00;100910.41;1971975;73;31514;-72
2021/09/09 00:28:34;;;;;;;66.67;60.73;;;;;;;19.51;100.00;100896.77;1971773;73;31042;-72
2021/09/09 00:33:59;;;;;;;65.77;60.37;;;;;;;19.44;100.00;100885.20;1972017;73;31526;-74
2021/09/09 00:39:23;;;;;;;64.73;59.50;;;;;;;19.25;100.00;100886.26;1971813;73;31035;-73
2021/09/09 00:44:49;;;;;;;62.83;57.53;;;;;;;19.14;100.00;100876.55;1971837;73;30993;-73
2021/09/09 00:50:14;;;;;;;71.27;65.57;;;;;;;18.99;100.00;100887.27;1971773;73;31011;-72
2021/09/09 00:55:41;;;;;;;69.97;64.17;;;;;;;19.26;100.00;100875.20;1971970;73;33037;-74
2021/09/09 01:01:06;;;;;;;71.00;64.80;;;;;;;19.34;100.00;100879.98;1971719;72;31071;-73
2021/09/09 01:06:31;;;;;;;71.30;64.80;;;;;;;19.30;100.00;100876.16;1971950;72;33463;-73
2021/09/09 01:11:57;;;;;;;72.37;66.07;;;;;;;19.25;100.00;100865.96;1971932;73;30968;-72
2021/09/09 01:17:22;;;;;;;69.17;63.53;;;;;;;18.98;100.00;100872.94;1971932;73;31073;-72
2021/09/09 01:22:46;;;;;;;72.17;65.87;;;;;;;18.89;100.00;100874.98;1961349;71;31027;-73
2021/09/09 01:28:12;;;;;;;73.40;67.33;;;;;;;18.97;100.00;100876.91;1971841;73;31043;-73
2021/09/09 01:33:44;;;;;;;72.83;66.53;;;;;;;18.87;100.00;100885.73;1971694;73;31052;-73
2021/09/09 01:39:09;;;;;;;72.23;65.80;;;;;;;18.89;100.00;100880.61;1971707;73;30962;-73
2021/09/09 01:44:33;;;;;;;73.17;66.97;;;;;;;18.96;100.00;100875.25;1971662;73;30974;-73
2021/09/09 01:49:59;;;;;;;75.23;68.83;;;;;;;18.90;100.00;100861.16;1972055;73;31065;-73
2021/09/09 01:55:24;;;;;;;72.87;66.63;;;;;;;18.85;100.00;100862.75;1971828;73;31035;-72
2021/09/09 02:00:48;;;;;;;72.13;65.57;;;;;;;18.84;100.00;100875.16;1971925;73;31448;-73
2021/09/09 02:06:13;;;;;;;72.13;65.90;;;;;;;18.72;100.00;100875.08;1971894;73;31052;-73
2021/09/09 02:11:38;;;;;;;70.50;64.37;;;;;;;18.67;100.00;100875.84;1972036;72;31004;-72
2021/09/09 02:17:03;;;;;;;69.47;63.63;;;;;;;18.61;100.00;100885.08;1971696;73;32995;-73
2021/09/09 02:22:27;;;;;;;71.53;65.30;;;;;;;18.65;100.00;100872.77;1950790;73;31015;-73
2021/09/09 02:27:50;;;;;;;73.43;67.13;;;;;;;18.86;100.00;100878.48;1971921;73;33425;-75
2021/09/09 02:33:15;;;;;;;73.87;67.00;;;;;;;18.94;100.00;100871.97;1971932;73;31532;-72
2021/09/09 02:38:40;;;;;;;75.37;68.17;;;;;;;18.88;100.00;100883.75;1971913;73;31436;-72
2021/09/09 02:44:10;;;;;;;82.50;73.97;;;;;;;18.92;100.00;100885.55;1971777;73;31010;-73
2021/09/09 02:49:34;;;;;;;82.03;73.10;;;;;;;19.01;100.00;100888.31;1971916;73;33408;-72
2021/09/09 02:55:02;;;;;;;87.23;72.87;;;;;;;19.02;100.00;100903.46;1971731;73;30983;-73
2021/09/09 03:00:27;;;;;;;81.10;72.17;;;;;;;18.95;100.00;100910.22;1971922;73;31429;-72
2021/09/09 03:05:51;;;;;;;85.30;68.47;;;;;;;18.98;100.00;100901.09;1971818;73;30968;-73
2021/09/09 03:11:16;;;;;;;86.07;68.77;;;;;;;18.87;100.00;100894.18;1971719;73;31028;-72
2021/09/09 03:16:41;;;;;;;85.50;70.43;;;;;;;18.85;100.00;100899.92;1971899;73;31500;-73
2021/09/09 03:22:06;;;;;;;91.03;71.73;;;;;;;18.92;100.00;100897.38;1954967;73;30970;-72
2021/09/09 03:27:31;;;;;;;93.27;68.13;;;;;;;18.92;100.00;100899.62;1971736;73;31009;-73
2021/09/09 03:32:56;;;;;;;80.03;66.57;;;;;;;19.00;100.00;100892.28;1972055;73;31416;-72
2021/09/09 03:38:21;;;;;;;84.37;64.80;;;;;;;18.95;100.00;100896.73;1971855;73;31080;-73
2021/09/09 03:43:46;;;;;;;90.27;67.33;;;;;;;19.02;100.00;100896.42;1971787;73;30953;-72
2021/09/09 03:49:11;;;;;;;81.73;66.57;;;;;;;18.93;100.00;100887.20;1971952;73;30954;-73
2021/09/09 03:54:35;;;;;;;76.57;61.97;;;;;;;18.98;100.00;100887.02;1971915;73;30992;-72
2021/09/09 04:00:00;;;;;;;81.33;62.40;;;;;;;18.95;100.00;100884.89;1971942;73;31462;-73
2021/09/09 04:05:24;;;;;;;78.83;63.57;;;;;;;18.93;100.00;100881.57;1971715;73;30947;-72
2021/09/09 04:10:48;;;;;;;83.43;63.30;;;;;;;18.99;100.00;100873.77;1971839;73;31010;-72
2021/09/09 04:16:12;;;;;;;71.17;59.30;;;;;;;19.04;100.00;100863.11;1971763;73;31007;-72
2021/09/09 04:21:40;;;;;;;75.60;61.30;;;;;;;19.06;100.00;100857.14;1966795;71;31035;-73
2021/09/09 04:27:05;;;;;;;73.97;60.70;;;;;;;19.13;100.00;100846.15;1971727;73;31016;-72
2021/09/09 04:32:30;;;;;;;78.83;64.50;;;;;;;19.12;100.00;100847.92;1972004;73;31555;-72
2021/09/09 04:37:55;;;;;;;76.10;63.50;;;;;;;19.04;100.00;100858.88;1971936;73;30929;-73
2021/09/09 04:43:19;;;;;;;70.30;60.47;;;;;;;19.14;100.00;100865.28;1971948;73;31460;-72
2021/09/09 04:48:47;;;;;;;78.93;62.40;;;;;;;19.09;100.00;100862.91;1971881;73;33410;-72
2021/09/09 04:54:11;;;;;;;74.90;61.17;;;;;;;19.08;100.00;100871.72;1971731;73;30998;-74
2021/09/09 04:59:35;;;;;;;69.00;60.00;;;;;;;19.08;100.00;100868.30;1971716;73;30954;-73
2021/09/09 05:05:00;;;;;;;66.87;59.67;;;;;;;19.04;100.00;100877.18;1971695;73;30955;-72
2021/09/09 05:10:25;;;;;;;66.60;59.40;;;;;;;19.04;100.00;100874.95;1971702;73;30959;-72
2021/09/09 05:15:50;;;;;;;69.50;57.93;;;;;;;19.07;100.00;100875.11;1971977;73;31065;-73
2021/09/09 05:21:14;;;;;;;65.70;57.30;;;;;;;19.06;100.00;100870.64;1971898;73;31428;-73
2021/09/09 05:26:40;;;;;;;66.97;58.87;;;;;;;19.09;100.00;100875.58;1971888;73;30932;-72
2021/09/09 05:32:09;;;;;;;67.07;59.80;;;;;;;19.05;100.00;100877.43;1971990;73;30999;-73
2021/09/09 05:37:33;;;;;;;65.00;58.50;;;;;;;19.06;100.00;100880.50;1971897;73;31548;-73
2021/09/09 05:42:59;;;;;;;67.00;60.23;;;;;;;19.06;100.00;100879.67;1971875;73;33435;-72
2021/09/09 05:48:23;;;;;;;64.17;57.17;;;;;;;19.13;100.00;100878.53;1971962;72;33433;-73
2021/09/09 05:53:48;;;;;;;66.63;60.10;;;;;;;19.04;100.00;100867.33;1971799;72;30937;-72
2021/09/09 05:59:19;;;;;;;66.53;59.83;;;;;;;19.03;100.00;100858.66;1971933;73;31449;-72
2021/09/09 06:04:45;;;;;;;65.73;59.53;;;;;;;19.13;100.00;100863.05;1971689;73;30949;-74
2021/09/09 06:10:11;;;;;;;65.00;59.03;;;;;;;19.12;100.00;100869.86;1971952;73;31528;-73
2021/09/09 06:15:36;;;;;;;65.93;59.33;;;;;;;19.00;100.00;100866.94;1971726;73;31013;-72
2021/09/09 06:21:01;;;;;;;64.23;58.27;;;;;;;19.04;100.00;100857.47;1968286;73;30946;-73
2021/09/09 06:26:28;;;;;;;64.17;57.97;;;;;;;19.08;100.00;100859.05;1971799;73;30986;-72
2021/09/09 06:31:53;;;;;;;65.80;59.37;;;;;;;19.06;100.00;100863.60;1971989;73;30934;-73
2021/09/09 06:37:18;;;;;;;63.47;56.90;;;;;;;19.12;100.00;100867.05;1971984;73;30940;-72
2021/09/09 06:42:44;;;;;;;61.97;56.30;;;;;;;19.03;100.00;100865.70;1971991;73;30934;-73
2021/09/09 06:48:09;;;;;;;61.47;55.73;;;;;;;19.05;100.00;100871.80;1971960;73;31417;-71
2021/09/09 06:53:34;;;;;;;59.90;54.20;;;;;;;19.00;100.00;100873.98;1971749;73;31002;-74
2021/09/09 06:58:58;;;;;;;58.27;52.73;;;;;;;18.94;100.00;100869.16;1971885;73;31511;-73
2021/09/09 07:04:23;;;;;;;61.60;55.70;;;;;;;19.02;100.00;100868.27;1971686;73;32981;-72
2021/09/09 07:09:47;;;;;;;59.50;53.67;;;;;;;19.03;100.00;100871.33;1971805;73;30995;-73
2021/09/09 07:15:13;;;;;;;61.07;55.43;;;;;;;19.04;100.00;100873.53;1972008;73;32161;-71
2021/09/09 07:20:41;;;;;;;59.23;53.73;;;;;;;18.87;100.00;100878.70;1971994;73;33464;-72
2021/09/09 07:26:06;;;;;;;59.93;54.20;;;;;;;18.84;100.00;100886.42;1971745;73;30993;-72
2021/09/09 07:31:30;;;;;;;62.57;56.67;;;;;;;18.93;100.00;100885.80;1971774;73;30933;-77
2021/09/09 07:36:55;;;;;;;63.30;56.77;;;;;;;18.95;100.00;100889.11;1971971;73;31458;-72
2021/09/09 07:42:20;;;;;;;60.13;54.17;;;;;;;19.04;100.00;100903.09;1971942;73;31118;-73
2021/09/09 07:47:45;;;;;;;58.80;52.63;;;;;;;18.92;100.00;100906.66;1971859;73;31507;-72
2021/09/09 07:53:10;;;;;;;57.13;51.43;;;;;;;18.98;100.00;100906.72;1971665;73;30946;-73
2021/09/09 07:58:34;;;;;;;57.90;51.73;;;;;;;19.06;100.00;100918.50;1971742;73;30955;-73
2021/09/09 08:03:59;;;;;;;56.13;50.67;;;;;;;19.27;100.00;100917.12;1971922;73;31507;-73
2021/09/09 08:09:26;;;;;;;55.57;50.17;;;;;;;19.14;100.00;100924.41;1971946;73;30973;-72
2021/09/09 08:15:13;;;;;;;57.03;51.63;;;;;;;19.19;100.00;100923.64;2016041;71;30945;-75
2021/09/09 08:20:38;;;;;;;53.63;48.63;;;;;;;19.21;100.00;100936.78;1971794;73;31048;-71
2021/09/09 08:26:03;;;;;;;54.97;49.77;;;;;;;19.39;100.00;100920.02;1971860;73;30961;-74
2021/09/09 08:31:28;;;;;;;55.37;50.23;;;;;;;19.33;100.00;100919.99;1971822;73;31042;-72
2021/09/09 08:36:53;;;;;;;54.37;49.50;;;;;;;19.45;100.00;100920.09;1971900;73;31508;-73
2021/09/09 08:42:19;;;;;;;54.73;49.67;;;;;;;19.46;100.00;100916.69;1971939;72;31435;-71
2021/09/09 08:47:47;;;;;;;54.33;49.00;;;;;;;19.52;100.00;100923.75;1971721;73;31025;-72
2021/09/09 08:53:12;;;;;;;52.67;48.00;;;;;;;19.64;100.00;100925.84;1971751;72;31023;-72
2021/09/09 08:58:37;;;;;;;51.27;46.77;;;;;;;19.71;100.00;100930.33;1971839;73;31019;-72
2021/09/09 09:04:06;;;;;;;50.87;46.53;;;;;;;19.72;100.00;100930.58;1971740;73;30959;-71
2021/09/09 09:09:36;;;;;;;50.57;46.23;;;;;;;19.82;100.00;100916.86;1971895;73;30972;-73
2021/09/09 09:15:22;;;;;;;48.00;44.17;;;;;;;20.06;100.00;100920.96;1971817;73;30965;-73
2021/09/09 09:20:57;;;;;;;48.97;44.97;;;;;;;20.08;100.00;100918.60;1971896;72;31505;-71
2021/09/09 09:26:24;;;;;;;47.53;43.70;;;;;;;20.13;100.00;100917.80;1971837;73;30990;-72
2021/09/09 09:31:49;;;;;;;45.73;42.33;;;;;;;20.16;100.00;100916.27;1972044;73;30968;-72
2021/09/09 09:37:22;;;;;;;44.77;41.37;;;;;;;20.12;100.00;100913.33;1971952;73;31453;-73
2021/09/09 09:42:47;;;;;;;45.47;42.27;;;;;;;20.26;100.00;100923.72;1971995;73;31009;-72
2021/09/09 09:48:28;;;;;;;45.10;41.90;;;;;;;20.22;100.00;100917.13;1971860;73;31516;-72
2021/09/09 09:53:58;;;;;;;42.67;39.67;;;;;;;20.15;100.00;100914.03;1971974;73;31047;-73
2021/09/09 09:59:31;;;;;;;42.93;40.00;;;;;;;20.37;100.00;100919.88;1971726;73;31072;-73
2021/09/09 10:04:59;;;;;;;43.47;40.47;;;;;;;20.42;100.00;100921.91;1971680;73;31076;-74
2021/09/09 10:10:26;;;;;;;44.17;40.97;;;;;;;20.49;100.00;100921.34;1971943;73;31056;-73
2021/09/09 10:15:52;;;;;;;43.30;40.23;;;;;;;20.69;100.00;100920.42;1971731;73;31018;-73
2021/09/09 10:25:06;;;;;;;43.60;40.40;;;;;;;21.02;100.00;100905.34;2016057;71;31355;-74
2021/09/09 10:30:40;;;;;;;45.25;41.95;;;;;;;21.12;100.00;100898.67;1972043;73;31138;-73
2021/09/09 10:33:13;;;;;;;42.60;39.60;;;;;;;21.09;100.00;100903.59;1931158;74;24438;-74
2021/09/09 10:38:42;;;;;;;41.08;38.08;;;;;;;21.44;100.00;100893.17;1971967;72;31068;-75
2021/09/09 10:44:10;;;;;;;41.53;38.73;;;;;;;21.80;100.00;100886.82;1971738;73;31028;-75
2021/09/09 10:49:36;;;;;;;40.08;37.23;;;;;;;21.74;100.00;100878.94;1971781;73;31088;-75
2021/09/09 10:55:10;;;;;;;41.73;38.73;;;;;;;21.73;100.00;100880.14;1971762;73;31052;-74
2021/09/09 11:00:58;;;;;;;43.17;39.98;;;;;;;21.84;100.00;100871.36;1971840;73;31468;-74
2021/09/09 11:06:34;;;;;;;44.70;41.70;;;;;;;21.87;100.00;100870.63;1971962;73;31023;-74
2021/09/09 11:12:09;;;;;;;44.67;41.57;;;;;;;21.48;100.00;100870.91;1971880;73;31007;-74
2021/09/09 11:17:34;;;;;;;44.55;41.45;;;;;;;21.46;100.00;100877.52;1971682;73;31085;-74
2021/09/09 11:23:11;;;;;;;41.83;39.03;;;;;;;21.59;100.00;100875.48;1971833;71;31460;-74
2021/09/09 11:28:36;;;;;;;41.30;38.67;;;;;;;21.62;100.00;100876.16;1971753;73;31018;-74
2021/09/09 11:34:07;;;;;;;41.65;38.95;;;;;;;21.28;100.00;100870.50;1971843;73;33379;-74
2021/09/09 11:39:36;;;;;;;42.00;39.30;;;;;;;21.62;100.00;100867.09;1971816;73;31120;-74
2021/09/09 11:45:02;;;;;;;39.47;36.97;;;;;;;21.71;100.00;100864.94;1971950;73;31532;-74
2021/09/09 11:50:27;;;;;;;38.60;36.20;;;;;;;21.79;100.00;100865.95;1971814;73;31053;-74
2021/09/09 11:55:57;;;;;;;39.75;37.35;;;;;;;21.62;100.00;100867.09;1971762;73;31028;-73
2021/09/09 12:01:30;;;;;;;49.05;46.30;;;;;;;21.77;100.00;100858.45;1971754;73;31057;-74
2021/09/09 12:06:56;;;;;;;39.00;36.50;;;;;;;21.94;100.00;100855.33;1971966;73;31578;-74
2021/09/09 12:12:21;;;;;;;38.45;36.05;;;;;;;22.03;100.00;100846.67;1972051;73;31552;-73
2021/09/09 12:17:55;;;;;;;38.87;36.43;;;;;;;22.11;100.00;100840.84;1971998;73;31008;-74
2021/09/09 12:23:21;;;;;;;47.27;44.48;;;;;;;22.19;100.00;100830.53;1937149;74;31505;-74
2021/09/09 12:28:46;;;;;;;44.83;42.17;;;;;;;22.55;100.00;100829.41;1971785;73;31034;-74
2021/09/09 12:34:13;;;;;;;45.85;43.15;;;;;;;22.68;100.00;100823.28;1971828;73;31132;-74
2021/09/09 12:39:47;;;;;;;38.15;35.85;;;;;;;22.82;100.00;100815.77;1971894;73;31502;-74
2021/09/09 12:48:15;;;;;;;39.05;36.65;;;;;;;22.58;100.00;100815.38;2060899;69;30700;-74
2021/09/09 12:50:55;;;;;;;38.95;36.65;;;;;;;22.38;100.00;100815.05;2030661;71;24152;-74
2021/09/09 12:53:31;;;;;;;37.67;35.48;;;;;;;22.51;100.00;100810.93;2030483;71;24560;-74
2021/09/09 12:56:12;;;;;;;38.90;36.50;;;;;;;22.50;100.00;100802.23;2030534;70;24187;-74
2021/09/09 12:58:43;;;;;;;39.05;36.75;;;;;;;22.53;100.00;100800.66;2030467;70;24109;-75
2021/09/09 13:01:13;;;;;;;38.28;35.98;;;;;;;22.51;100.00;100800.20;2030574;70;24170;-75
2021/09/09 13:03:43;;;;;;;38.55;36.17;;;;;;;22.60;100.00;100793.75;2030462;71;24178;-74
2021/09/09 13:06:13;;;;;;;37.58;35.38;;;;;;;22.63;100.00;100793.04;2030431;70;26233;-75
2021/09/09 13:08:43;;;;;;;39.27;36.88;;;;;;;22.71;100.00;100795.47;2030492;70;24540;-75
2021/09/09 13:11:13;;;;;;;38.38;36.17;;;;;;;22.72;100.00;100800.74;2030482;71;24122;-74
2021/09/09 13:13:44;;;;;;;38.15;35.78;;;;;;;22.77;100.00;100793.97;2030593;71;24108;-75
2021/09/09 13:16:14;;;;;;;38.45;36.05;;;;;;;22.73;100.00;100785.99;2030391;71;24587;-74
2021/09/09 13:18:45;;;;;;;39.70;37.42;;;;;;;22.75;100.00;100781.62;2030446;71;24202;-75
2021/09/09 13:21:20;;;;;;;38.28;35.98;;;;;;;22.87;100.00;100782.08;2022132;71;24153;-75
2021/09/09 13:23:49;;;;;;;38.70;36.23;;;;;;;22.81;100.00;100773.05;1993911;72;24184;-74
2021/09/09 13:26:20;;;;;;;36.75;34.55;;;;;;;22.92;100.00;100771.88;1993697;72;24170;-75
2021/09/09 13:28:53;;;;;;;36.98;34.67;;;;;;;22.98;100.00;100766.95;1993589;72;24649;-75
2021/09/09 13:34:18;;;;;;;38.90;36.55;;;;;;;22.99;100.00;100761.52;1972083;73;31045;-75
2021/09/09 13:39:42;;;;;;;36.25;33.90;;;;;;;23.12;100.00;100760.78;1971803;73;30983;-75
2021/09/09 13:45:10;;;;;;;36.85;34.45;;;;;;;23.12;100.00;100747.44;1972109;72;31512;-74
2021/09/09 13:50:35;;;;;;;37.17;34.98;;;;;;;23.11;100.00;100748.63;1972118;73;31493;-75
2021/09/09 13:56:00;;;;;;;37.60;35.50;;;;;;;22.97;100.00;100737.60;1971834;73;31036;-74
2021/09/09 14:01:24;;;;;;;34.73;32.83;;;;;;;22.96;100.00;100741.03;1972061;73;31440;-74
2021/09/09 14:06:48;;;;;;;34.55;32.65;;;;;;;23.18;100.00;100731.56;1971804;72;30935;-74
2021/09/09 14:12:13;;;;;;;34.30;32.40;;;;;;;23.20;100.00;100723.49;1972015;73;30994;-74
2021/09/09 14:17:37;;;;;;;35.05;33.05;;;;;;;23.10;100.00;100722.10;1971909;73;30996;-75
2021/09/09 14:23:04;;;;;;;33.88;31.93;;;;;;;23.27;100.00;100719.41;1943535;73;31002;-74
2021/09/09 14:28:27;;;;;;;35.68;33.78;;;;;;;23.12;100.00;100707.77;1971828;73;31011;-75
2021/09/09 14:33:55;;;;;;;33.50;31.70;;;;;;;22.98;100.00;100719.39;1971894;73;30928;-74
2021/09/09 14:39:20;;;;;;;35.30;33.45;;;;;;;22.89;100.00;100714.56;1971810;73;31104;-75
2021/09/09 14:44:46;;;;;;;35.25;33.35;;;;;;;22.94;100.00;100717.08;1972086;73;31006;-74
2021/09/09 14:50:13;;;;;;;34.30;32.58;;;;;;;22.91;100.00;100714.41;1971907;73;31003;-76
2021/09/09 14:55:38;;;;;;;34.40;32.58;;;;;;;23.08;100.00;100709.71;1971845;73;30942;-74
2021/09/09 15:01:03;;;;;;;33.33;31.37;;;;;;;22.86;100.00;100707.61;1972013;73;31501;-74
2021/09/09 15:06:27;;;;;;;32.83;31.02;;;;;;;22.88;100.00;100710.08;1971889;73;30960;-74
2021/09/09 15:11:52;;;;;;;34.45;32.50;;;;;;;22.85;100.00;100721.55;1971811;72;31439;-74
2021/09/09 15:17:16;;;;;;;49.30;46.70;;;;;;;22.85;100.00;100716.50;1972015;73;31517;-76
2021/09/09 15:22:41;;;;;;;33.58;31.77;;;;;;;22.94;100.00;100719.91;1948490;72;31911;-75
2021/09/09 15:28:07;;;;;;;32.65;30.95;;;;;;;23.05;100.00;100707.63;1971865;73;30924;-74
2021/09/09 15:33:32;;;;;;;32.30;30.70;;;;;;;22.92;100.00;100711.80;1971855;73;31031;-74
2021/09/09 15:39:03;;;;;;;32.93;31.23;;;;;;;22.85;100.00;100704.55;1971865;72;31088;-74
2021/09/09 15:44:28;;;;;;;33.65;31.85;;;;;;;22.84;100.00;100721.94;1971937;73;31468;-74
2021/09/09 15:49:52;;;;;;;33.45;31.75;;;;;;;22.59;100.00;100716.48;1971825;72;30942;-74
2021/09/09 15:55:19;;;;;;;33.50;31.70;;;;;;;22.68;100.00;100723.35;1971778;73;31004;-75
2021/09/09 16:00:44;;;;;;;35.43;33.63;;;;;;;22.68;100.00;100711.44;1971979;73;31474;-74
2021/09/09 16:06:08;;;;;;;34.27;32.58;;;;;;;22.63;100.00;100717.38;1971869;73;31081;-75
2021/09/09 16:11:33;;;;;;;35.65;33.85;;;;;;;22.53;100.00;100736.97;1971819;73;30995;-75
2021/09/09 16:16:57;;;;;;;34.55;32.65;;;;;;;22.46;100.00;100720.62;1971962;73;30934;-74
2021/09/09 16:22:22;;;;;;;35.95;33.95;;;;;;;22.47;100.00;100727.93;1963458;71;31111;-75
2021/09/09 16:27:47;;;;;;;35.98;33.98;;;;;;;22.21;100.00;100726.28;1971877;73;30993;-74
2021/09/09 16:33:12;;;;;;;36.50;34.53;;;;;;;22.15;100.00;100730.59;1972018;73;31489;-75
2021/09/09 16:38:37;;;;;;;36.03;33.92;;;;;;;22.13;100.00;100735.19;1972067;73;31427;-74
2021/09/09 16:44:05;;;;;;;35.10;33.20;;;;;;;22.08;100.00;100736.88;1972082;72;31520;-75
2021/09/09 16:49:37;;;;;;;36.83;34.73;;;;;;;21.90;100.00;100737.59;1971998;73;31539;-75
2021/09/09 16:55:03;;;;;;;35.88;33.70;;;;;;;21.93;100.00;100741.13;1971830;73;30943;-75
2021/09/09 17:00:28;;;;;;;39.25;36.95;;;;;;;21.95;100.00;100729.67;1971835;73;31059;-75
2021/09/09 17:05:53;;;;;;;37.50;35.30;;;;;;;21.94;100.00;100733.70;1972057;73;31450;-75
2021/09/09 17:11:20;;;;;;;38.07;35.87;;;;;;;21.79;100.00;100735.88;1972008;73;31437;-74
2021/09/09 17:16:46;;;;;;;36.13;34.03;;;;;;;21.78;100.00;100735.06;1971791;73;30953;-74
2021/09/09 17:22:10;;;;;;;36.20;34.23;;;;;;;21.62;100.00;100734.23;1954339;73;30948;-74
2021/09/09 17:27:35;;;;;;;36.48;34.40;;;;;;;21.89;100.00;100733.11;1971818;73;31013;-75
2021/09/09 17:33:00;;;;;;;36.35;34.45;;;;;;;21.91;100.00;100744.88;1972107;73;31454;-74
2021/09/09 17:38:27;;;;;;;37.13;35.13;;;;;;;21.84;100.00;100741.28;1971870;73;31009;-74
2021/09/09 17:43:52;;;;;;;36.23;34.13;;;;;;;21.83;100.00;100743.87;1971953;73;31452;-75
2021/09/09 17:49:17;;;;;;;41.63;39.33;;;;;;;21.90;100.00;100741.25;1972102;73;31552;-74
2021/09/09 17:54:42;;;;;;;39.95;37.75;;;;;;;21.68;100.00;100745.52;1971910;73;31086;-77
2021/09/09 18:00:10;;;;;;;36.33;34.33;;;;;;;21.59;100.00;100752.51;1972029;73;30938;-75
2021/09/09 18:05:36;;;;;;;38.08;35.90;;;;;;;21.65;100.00;100751.08;1971987;73;31015;-77
2021/09/09 18:11:02;;;;;;;37.65;35.45;;;;;;;21.68;100.00;100751.17;1971894;73;30938;-77
2021/09/09 18:16:26;;;;;;;37.70;35.50;;;;;;;21.43;100.00;100747.42;1971807;73;31052;-75
2021/09/09 18:21:51;;;;;;;39.27;37.08;;;;;;;21.41;100.00;100762.48;1972041;73;31062;-75
2021/09/09 18:27:16;;;;;;;39.67;37.35;;;;;;;21.23;100.00;100769.86;1972017;73;31437;-74
2021/09/09 18:32:40;;;;;;;40.88;38.53;;;;;;;21.12;100.00;100779.17;1971992;73;30960;-72
2021/09/09 18:38:05;;;;;;;40.30;37.80;;;;;;;21.10;100.00;100788.00;1972011;73;31531;-72
2021/09/09 18:43:30;;;;;;;40.80;38.30;;;;;;;21.05;100.00;100793.89;1971847;73;31162;-73
2021/09/09 18:48:54;;;;;;;40.70;38.40;;;;;;;21.02;100.00;100790.96;1971856;73;31064;-72
2021/09/09 18:54:22;;;;;;;41.53;39.23;;;;;;;20.96;100.00;100798.05;1971763;73;30976;-72
2021/09/09 18:59:49;;;;;;;40.67;38.35;;;;;;;20.89;100.00;100803.70;1971999;73;30992;-71
2021/09/09 19:05:24;;;;;;;40.65;38.25;;;;;;;21.01;100.00;100806.29;1972127;73;31397;-73
2021/09/09 19:10:51;;;;;;;43.60;41.00;;;;;;;20.85;100.00;100807.01;1971888;73;31027;-71
2021/09/09 19:16:35;;;;;;;44.10;41.60;;;;;;;20.90;100.00;100811.59;2016105;71;30930;-71
2021/09/09 19:21:59;;;;;;;45.70;43.07;;;;;;;20.86;100.00;100826.19;1972022;73;31512;-72
2021/09/09 19:27:24;;;;;;;45.95;43.28;;;;;;;20.80;100.00;100819.13;1972205;73;30965;-74
2021/09/09 19:32:48;;;;;;;40.57;38.07;;;;;;;20.72;100.00;100822.90;1971928;73;30982;-70
2021/09/09 19:38:19;;;;;;;40.67;38.37;;;;;;;20.75;100.00;100825.03;1972116;73;31535;-73
2021/09/09 19:43:45;;;;;;;41.17;38.57;;;;;;;20.72;100.00;100840.66;1971819;73;31008;-72
2021/09/09 19:49:09;;;;;;;43.63;41.23;;;;;;;20.60;100.00;100839.27;1971920;73;30978;-72
2021/09/09 19:54:34;;;;;;;44.17;41.67;;;;;;;20.62;100.00;100843.16;1971863;73;31117;-71
2021/09/09 19:59:59;;;;;;;40.38;37.85;;;;;;;20.57;100.00;100854.09;1971887;73;31025;-73
2021/09/09 20:05:44;;;;;;;45.53;42.93;;;;;;;20.57;100.00;100858.91;2016231;71;31411;-74
2021/09/09 20:11:09;;;;;;;43.33;40.77;;;;;;;20.41;100.00;100860.16;1971998;73;31602;-73
2021/09/09 20:16:36;;;;;;;43.83;41.17;;;;;;;20.25;100.00;100865.65;1971821;73;30983;-72
2021/09/09 20:22:04;;;;;;;44.13;41.30;;;;;;;20.30;100.00;100858.99;1965137;71;31078;-74
2021/09/09 20:27:28;;;;;;;43.97;41.17;;;;;;;20.30;100.00;100861.81;1971901;73;30992;-75
2021/09/09 20:32:59;;;;;;;43.80;40.90;;;;;;;20.14;100.00;100861.64;1972128;73;31594;-75
2021/09/09 20:38:24;;;;;;;41.80;39.10;;;;;;;20.10;100.00;100855.06;1971960;73;33562;-75
2021/09/09 20:43:48;;;;;;;43.73;40.90;;;;;;;20.00;100.00;100865.36;1972108;73;30969;-77
2021/09/09 20:49:13;;;;;;;43.30;40.60;;;;;;;19.93;100.00;100864.53;1972081;73;31465;-71
2021/09/09 20:54:41;;;;;;;43.90;41.07;;;;;;;19.81;100.00;100874.95;1971840;73;31060;-70
2021/09/09 21:00:07;;;;;;;43.30;40.20;;;;;;;19.62;100.00;100876.86;1971910;73;31071;-75
2021/09/09 21:05:32;;;;;;;43.23;40.23;;;;;;;19.53;100.00;100886.80;1972046;73;31496;-72
2021/09/09 21:10:58;;;;;;;43.77;40.67;;;;;;;19.44;100.00;100888.85;1971890;73;31040;-76
2021/09/09 21:16:22;;;;;;;43.03;40.03;;;;;;;19.38;100.00;100893.00;1971859;73;30985;-74
2021/09/09 21:21:47;;;;;;;42.87;39.83;;;;;;;19.38;100.00;100891.59;1959078;73;31092;-72
2021/09/09 21:27:11;;;;;;;42.57;39.40;;;;;;;19.29;100.00;100885.23;1971848;73;31048;-71
2021/09/09 21:32:36;;;;;;;42.00;39.10;;;;;;;19.21;100.00;100891.72;1971964;73;31042;-75
2021/09/09 21:38:01;;;;;;;43.10;40.03;;;;;;;19.17;100.00;100889.34;1972151;73;31079;-72
2021/09/09 21:43:28;;;;;;;43.93;40.93;;;;;;;19.08;100.00;100892.22;1971969;73;31058;-72
2021/09/09 21:48:54;;;;;;;44.07;40.97;;;;;;;19.10;100.00;100898.36;1971786;73;30966;-70
2021/09/09 21:54:19;;;;;;;43.20;40.07;;;;;;;18.87;100.00;100901.22;1971824;73;30973;-71
2021/09/09 21:59:43;;;;;;;43.60;40.43;;;;;;;18.76;100.00;100894.34;1971994;73;31105;-70
2021/09/09 22:05:09;;;;;;;41.57;38.57;;;;;;;18.77;100.00;100903.61;1971831;73;31033;-70
2021/09/09 22:10:41;;;;;;;42.10;39.17;;;;;;;18.69;100.00;100901.66;1972002;73;30951;-70
2021/09/09 22:16:07;;;;;;;43.77;40.50;;;;;;;18.69;100.00;100907.30;1972059;73;30974;-70
2021/09/09 22:21:32;;;;;;;43.03;39.67;;;;;;;18.47;100.00;100910.58;1961970;73;31050;-71
2021/09/09 22:26:58;;;;;;;42.13;38.93;;;;;;;18.53;100.00;100922.48;1971997;73;31543;-70
2021/09/09 22:32:22;;;;;;;43.33;40.23;;;;;;;18.47;100.00;100924.65;1972063;73;31030;-71
2021/09/09 22:37:47;;;;;;;41.93;38.97;;;;;;;18.40;100.00;100927.12;1971847;73;31041;-71
2021/09/09 22:43:13;;;;;;;42.90;39.87;;;;;;;18.29;100.00;100925.03;1972035;73;31053;-70
2021/09/09 22:48:38;;;;;;;43.43;40.43;;;;;;;18.25;100.00;100931.08;1971878;73;30975;-70
2021/09/09 22:54:02;;;;;;;43.27;39.97;;;;;;;18.22;100.00;100933.98;1971909;73;30982;-70
2021/09/09 22:59:27;;;;;;;43.00;39.80;;;;;;;18.38;100.00;100932.28;1971853;73;31059;-71
2021/09/09 23:05:00;;;;;;;41.07;37.97;;;;;;;18.45;100.00;100928.94;1972052;73;30974;-70
2021/09/09 23:10:24;;;;;;;42.17;39.27;;;;;;;18.41;100.00;100930.77;1971804;73;30958;-70
2021/09/09 23:15:49;;;;;;;42.60;39.50;;;;;;;18.48;100.00;100931.90;1971951;73;30989;-71
2021/09/09 23:21:14;;;;;;;41.80;38.80;;;;;;;18.50;100.00;100938.03;1969380;71;30970;-70
2021/09/09 23:26:41;;;;;;;43.70;40.50;;;;;;;18.51;100.00;100930.42;1971814;73;31024;-70
2021/09/09 23:32:07;;;;;;;41.13;38.13;;;;;;;18.46;100.00;100925.80;1972058;73;30972;-69
2021/09/09 23:37:33;;;;;;;40.07;36.90;;;;;;;18.51;100.00;100920.57;1971971;73;33408;-70
2021/09/09 23:42:57;;;;;;;42.30;39.30;;;;;;;18.52;100.00;100920.28;1971809;73;30966;-70